createdAt,value
2023-04-10T00:00:36.337Z,8.20
2023-04-10T00:03:04.004Z,10.52
2023-04-10T00:05:31.471Z,8.32
2023-04-10T00:07:58.359Z,9.50
2023-04-10T00:10:26.467Z,7.70
2023-04-10T00:12:54.035Z,8.77
2023-04-10T00:15:21.064Z,7.72
2023-04-10T00:17:47.988Z,6.93
2023-04-10T00:20:14.976Z,9.88
2023-04-10T00:22:42.891Z,8.57
2023-04-10T00:25:09.984Z,6.45
2023-04-10T00:27:36.835Z,6.93
2023-04-10T00:30:03.992Z,6.63
2023-04-10T00:32:30.916Z,8.02
2023-04-10T00:34:58.011Z,6.72
2023-04-10T00:37:25.031Z,6.60
2023-04-10T00:39:52.072Z,7.10
2023-04-10T00:42:18.992Z,6.85
2023-04-10T00:44:46.078Z,7.70
2023-04-10T00:47:14.261Z,6.95
2023-04-10T00:49:42.119Z,7.03
2023-04-10T00:52:09.877Z,7.32
2023-04-10T00:54:37.314Z,6.60
2023-04-10T00:57:07.592Z,9.70
2023-04-10T00:59:36.098Z,6.50
2023-04-10T01:02:04.402Z,5.57
2023-04-10T01:04:33.265Z,7.55
2023-04-10T01:07:50.675Z,6.45
2023-04-10T01:10:36.420Z,7.13
2023-04-10T01:13:30.467Z,5.35
2023-04-10T01:16:18.564Z,7.15
2023-04-10T01:18:57.124Z,6.50
2023-04-10T01:21:25.058Z,7.80
2023-04-10T01:24:22.179Z,4.93
2023-04-10T01:27:46.784Z,6.07
2023-04-10T01:30:21.076Z,5.50
2023-04-10T01:32:51.062Z,5.90
2023-04-10T01:35:19.696Z,6.70
2023-04-10T01:37:49.760Z,6.65
2023-04-10T01:40:20.085Z,6.97
2023-04-10T01:42:56.212Z,5.85
2023-04-10T01:45:28.504Z,5.70
2023-04-10T01:47:59.402Z,7.38
2023-04-10T01:50:28.627Z,7.53
2023-04-10T01:52:58.017Z,6.55
2023-04-10T01:55:27.245Z,6.13
2023-04-10T01:57:55.084Z,6.97
2023-04-10T02:00:22.807Z,6.05
2023-04-10T02:02:51.001Z,6.15
2023-04-10T02:05:18.593Z,6.45
2023-04-10T02:08:20.947Z,6.45
2023-04-10T02:11:37.851Z,7.60
2023-04-10T02:14:10.797Z,5.40
2023-04-10T02:16:39.802Z,5.88
2023-04-10T02:19:11.075Z,7.03
2023-04-10T02:21:39.982Z,5.43
2023-04-10T02:24:07.334Z,7.45
2023-04-10T02:26:51.727Z,5.72
2023-04-10T02:29:19.523Z,5.20
2023-04-10T02:31:49.030Z,5.38
2023-04-10T02:34:16.065Z,5.28
2023-04-10T02:36:42.862Z,5.25
2023-04-10T02:39:09.718Z,5.57
2023-04-10T02:41:36.540Z,5.75
2023-04-10T02:44:03.569Z,5.00
2023-04-10T02:46:30.632Z,5.53
2023-04-10T02:48:57.631Z,5.78
2023-04-10T02:51:24.510Z,5.78
2023-04-10T02:53:53.313Z,5.97
2023-04-10T02:56:20.777Z,5.25
2023-04-10T02:58:47.705Z,6.05
2023-04-10T03:01:14.621Z,5.50
2023-04-10T03:03:41.587Z,5.80
2023-04-10T03:06:09.400Z,4.65
2023-04-10T03:08:36.392Z,5.50
2023-04-10T03:11:03.242Z,5.88
2023-04-10T03:13:30.098Z,5.45
2023-04-10T03:15:56.968Z,5.60
2023-04-10T03:18:24.025Z,5.20
2023-04-10T03:20:50.941Z,6.65
2023-04-10T03:23:17.875Z,4.40
2023-04-10T03:25:44.801Z,4.53
2023-04-10T03:28:11.669Z,5.57
2023-04-10T03:30:38.573Z,5.40
2023-04-10T03:33:05.479Z,5.63
2023-04-10T03:35:32.461Z,5.30
2023-04-10T03:37:59.458Z,4.47
2023-04-10T03:40:26.278Z,5.90
2023-04-10T03:42:53.092Z,4.63
2023-04-10T03:45:20.169Z,6.28
2023-04-10T03:47:47.060Z,7.07
2023-04-10T03:50:13.943Z,7.18
2023-04-10T03:52:40.798Z,6.65
2023-04-10T03:55:08.185Z,4.82
2023-04-10T03:57:34.948Z,5.32
2023-04-10T04:00:02.846Z,5.28
2023-04-10T04:02:29.854Z,5.50
2023-04-10T04:04:57.297Z,5.47
2023-04-10T04:07:24.130Z,6.45
2023-04-10T04:09:51.318Z,5.47
2023-04-10T04:12:18.142Z,5.82
2023-04-10T04:14:45.277Z,5.05
2023-04-10T04:17:12.513Z,5.85
2023-04-10T04:19:39.356Z,5.60
2023-04-10T04:22:06.245Z,6.55
2023-04-10T04:24:33.267Z,7.60
2023-04-10T04:27:01.180Z,7.70
2023-04-10T04:29:28.208Z,6.07
2023-04-10T04:31:55.106Z,7.88
2023-04-10T04:34:21.976Z,6.78
2023-04-10T04:36:48.876Z,6.93
2023-04-10T04:39:16.013Z,5.68
2023-04-10T04:41:42.962Z,6.97
2023-04-10T04:44:10.234Z,7.05
2023-04-10T04:46:37.000Z,5.93
2023-04-10T04:49:03.815Z,6.72
2023-04-10T04:51:30.889Z,5.85
2023-04-10T04:53:57.665Z,6.15
2023-04-10T04:56:24.452Z,5.82
2023-04-10T04:58:51.301Z,5.45
2023-04-10T05:01:18.174Z,8.40
2023-04-10T05:03:45.427Z,5.82
2023-04-10T05:06:12.380Z,6.57
2023-04-10T05:08:39.267Z,5.65
2023-04-10T05:11:06.804Z,5.72
2023-04-10T05:13:33.659Z,7.30
2023-04-10T05:16:00.527Z,5.50
2023-04-10T05:18:28.111Z,6.72
2023-04-10T05:20:54.987Z,5.40
2023-04-10T05:23:21.848Z,8.00
2023-04-10T05:25:49.102Z,7.20
2023-04-10T05:28:16.037Z,6.20
2023-04-10T05:30:42.911Z,6.28
2023-04-10T05:33:09.758Z,6.68
2023-04-10T05:35:36.710Z,5.97
2023-04-10T05:38:03.622Z,8.13
2023-04-10T05:40:30.680Z,6.55
2023-04-10T05:42:57.706Z,7.05
2023-04-10T05:45:24.673Z,6.18
2023-04-10T05:47:51.559Z,8.50
2023-04-10T05:50:18.473Z,6.80
2023-04-10T05:52:46.653Z,6.05
2023-04-10T05:55:13.597Z,6.45
2023-04-10T05:57:40.492Z,6.05
2023-04-10T06:00:08.293Z,5.93
2023-04-10T06:02:35.830Z,5.38
2023-04-10T06:05:02.962Z,5.50
2023-04-10T06:07:29.880Z,5.78
2023-04-10T06:09:56.684Z,7.32
2023-04-10T06:12:23.544Z,5.25
2023-04-10T06:14:50.605Z,5.32
2023-04-10T06:17:17.454Z,6.05
2023-04-10T06:19:44.390Z,6.70
2023-04-10T06:22:11.232Z,7.30
2023-04-10T06:24:38.622Z,8.45
2023-04-10T06:27:05.594Z,6.85
2023-04-10T06:29:32.481Z,6.88
2023-04-10T06:31:59.361Z,6.70
2023-04-10T06:34:26.454Z,7.30
2023-04-10T06:36:53.233Z,7.43
2023-04-10T06:39:20.041Z,7.13
2023-04-10T06:41:46.892Z,7.38
2023-04-10T06:44:13.767Z,8.77
2023-04-10T06:46:40.860Z,6.40
2023-04-10T06:49:07.753Z,7.25
2023-04-10T06:51:34.712Z,8.38
2023-04-10T06:54:01.581Z,8.80
2023-04-10T06:56:28.674Z,6.20
2023-04-10T06:58:56.310Z,6.63
2023-04-10T07:01:23.606Z,6.60
2023-04-10T07:03:50.876Z,6.20
2023-04-10T07:06:17.839Z,6.70
2023-04-10T07:08:44.704Z,6.35
2023-04-10T07:11:11.527Z,7.00
2023-04-10T07:13:40.014Z,6.50
2023-04-10T07:16:11.074Z,6.63
2023-04-10T07:18:39.024Z,6.43
2023-04-10T07:21:14.288Z,6.40
2023-04-10T07:23:41.197Z,6.20
2023-04-10T07:26:08.045Z,5.07
2023-04-10T07:28:34.982Z,5.43
2023-04-10T07:31:02.077Z,4.75
2023-04-10T07:33:28.977Z,5.10
2023-04-10T07:35:55.917Z,6.00
2023-04-10T07:38:24.207Z,5.32
2023-04-10T07:40:57.492Z,5.93
2023-04-10T07:43:24.786Z,6.88
2023-04-10T07:45:52.872Z,5.25
2023-04-10T07:48:19.781Z,4.85
2023-04-10T07:50:46.678Z,4.65
2023-04-10T07:53:13.619Z,4.68
2023-04-10T07:55:42.764Z,4.97
2023-04-10T07:58:10.590Z,5.00
2023-04-10T08:00:37.749Z,4.85
2023-04-10T08:03:06.379Z,4.80
2023-04-10T08:05:34.084Z,5.32
2023-04-10T08:08:00.881Z,4.60
2023-04-10T08:10:27.806Z,4.38
2023-04-10T08:12:54.642Z,4.07
2023-04-10T08:15:21.583Z,4.45
2023-04-10T08:17:48.476Z,4.28
2023-04-10T08:20:16.008Z,4.85
2023-04-10T08:22:42.849Z,4.40
2023-04-10T08:25:10.246Z,3.47
2023-04-10T08:27:37.883Z,3.75
2023-04-10T08:30:05.854Z,3.80
2023-04-10T08:32:32.905Z,3.70
2023-04-10T08:34:59.859Z,3.20
2023-04-10T08:37:26.934Z,3.92
2023-04-10T08:39:54.021Z,3.13
2023-04-10T08:42:21.216Z,3.13
2023-04-10T08:44:50.331Z,4.05
2023-04-10T08:47:21.575Z,3.38
2023-04-10T08:49:56.226Z,3.38
2023-04-10T08:52:26.285Z,3.00
2023-04-10T08:54:58.578Z,3.30
2023-04-10T08:57:26.905Z,3.83
2023-04-10T08:59:53.748Z,3.10
2023-04-10T09:02:21.867Z,2.65
2023-04-10T09:04:55.330Z,2.88
2023-04-10T09:07:23.429Z,2.72
2023-04-10T09:09:50.355Z,3.00
2023-04-10T09:12:17.330Z,2.90
2023-04-10T09:14:44.270Z,3.15
2023-04-10T09:17:20.325Z,2.60
2023-04-10T09:19:53.813Z,2.55
2023-04-10T09:22:32.270Z,2.53
2023-04-10T09:25:01.019Z,2.47
2023-04-10T09:27:35.543Z,2.45
2023-04-10T09:30:04.449Z,2.40
2023-04-10T09:32:41.695Z,2.22
2023-04-10T09:35:14.961Z,2.40
2023-04-10T09:37:45.672Z,2.08
2023-04-10T09:40:25.350Z,2.35
2023-04-10T09:42:53.920Z,2.37
2023-04-10T09:45:22.503Z,2.03
2023-04-10T09:48:10.452Z,1.95
2023-04-10T09:50:40.926Z,1.58
2023-04-10T09:53:20.488Z,2.08
2023-04-10T09:55:49.383Z,1.85
2023-04-10T09:58:17.356Z,1.67
2023-04-10T10:00:49.331Z,2.25
2023-04-10T10:03:21.130Z,1.95
2023-04-10T10:05:52.014Z,1.95
2023-04-10T10:08:19.109Z,2.42
2023-04-10T10:10:53.797Z,2.13
2023-04-10T10:13:36.108Z,2.47
2023-04-10T10:16:27.734Z,2.17
2023-04-10T10:19:17.840Z,2.33
2023-04-10T10:21:46.138Z,1.80
2023-04-10T10:24:14.914Z,2.30
2023-04-10T10:26:44.394Z,1.92
2023-04-10T10:29:13.396Z,1.83
2023-04-10T10:31:40.665Z,1.70
2023-04-10T10:34:09.688Z,2.25
2023-04-10T10:36:38.174Z,2.13
2023-04-10T10:39:23.068Z,2.08
2023-04-10T10:42:32.999Z,2.42
2023-04-10T10:45:19.498Z,2.00
2023-04-10T10:47:53.462Z,2.15
2023-04-10T10:50:24.259Z,2.33
2023-04-10T10:52:53.978Z,2.60
2023-04-10T10:55:35.014Z,2.45
2023-04-10T10:58:11.237Z,2.45
2023-04-10T11:00:54.973Z,2.33
2023-04-10T11:03:22.592Z,2.17
2023-04-10T11:05:55.297Z,2.15
2023-04-10T11:08:36.856Z,2.22
2023-04-10T11:11:09.698Z,1.92
2023-04-10T11:13:40.349Z,1.90
2023-04-10T11:16:12.451Z,1.63
2023-04-10T11:18:45.227Z,1.52
2023-04-10T11:21:23.262Z,2.35
2023-04-10T11:23:52.852Z,2.08
2023-04-10T11:26:36.812Z,2.38
2023-04-10T11:29:27.924Z,1.98
2023-04-10T11:32:03.248Z,1.80
2023-04-10T11:34:31.154Z,1.83
2023-04-10T11:36:58.029Z,1.85
2023-04-10T11:39:27.766Z,2.20
2023-04-10T11:41:57.952Z,1.55
2023-04-10T11:44:42.730Z,1.70
2023-04-10T11:47:13.200Z,2.22
2023-04-10T11:49:40.084Z,1.92
2023-04-10T11:52:07.121Z,1.67
2023-04-10T11:54:33.994Z,1.75
2023-04-10T11:57:07.112Z,1.73
2023-04-10T11:59:34.984Z,2.00
2023-04-10T12:02:10.588Z,1.90
2023-04-10T12:04:38.094Z,1.92
2023-04-10T12:07:05.437Z,1.58
2023-04-10T12:09:32.423Z,1.63
2023-04-10T12:12:08.808Z,1.35
2023-04-10T12:14:38.246Z,1.58
2023-04-10T12:17:07.609Z,2.10
2023-04-10T12:19:35.987Z,2.28
2023-04-10T12:22:03.305Z,1.88
2023-04-10T12:24:50.688Z,1.83
2023-04-10T12:27:20.298Z,2.00
2023-04-10T12:29:50.037Z,2.05
2023-04-10T12:32:17.503Z,1.85
2023-04-10T12:34:59.053Z,1.73
2023-04-10T12:37:52.584Z,1.90
2023-04-10T12:40:20.683Z,2.00
2023-04-10T12:42:47.668Z,1.95
2023-04-10T12:45:15.243Z,2.13
2023-04-10T12:47:48.640Z,1.80
2023-04-10T12:50:18.366Z,1.52
2023-04-10T12:53:01.025Z,1.55
2023-04-10T12:55:28.904Z,1.65
2023-04-10T12:57:56.819Z,1.85
2023-04-10T13:00:25.808Z,1.55
2023-04-10T13:02:53.175Z,1.70
2023-04-10T13:05:21.621Z,1.70
2023-04-10T13:07:52.731Z,1.00
2023-04-10T13:10:20.183Z,1.38
2023-04-10T13:12:47.394Z,1.35
2023-04-10T13:15:14.412Z,1.58
2023-04-10T13:17:41.839Z,1.20
2023-04-10T13:20:10.948Z,1.33
2023-04-10T13:22:37.897Z,1.48
2023-04-10T13:25:05.721Z,1.30
2023-04-10T13:27:32.606Z,1.55
2023-04-10T13:29:59.544Z,1.33
2023-04-10T13:32:26.434Z,1.33
2023-04-10T13:34:54.789Z,1.55
2023-04-10T13:37:21.605Z,1.55
2023-04-10T13:39:48.537Z,1.27
2023-04-10T13:42:15.489Z,1.40
2023-04-10T13:44:42.337Z,1.40
2023-04-10T13:47:09.419Z,1.10
2023-04-10T13:49:36.296Z,1.08
2023-04-10T13:52:03.097Z,1.27
2023-04-10T13:54:29.922Z,1.00
2023-04-10T13:56:57.620Z,1.13
2023-04-10T13:59:24.768Z,1.00
2023-04-10T14:01:52.692Z,1.48
2023-04-10T14:04:19.975Z,0.93
2023-04-10T14:06:46.940Z,1.40
2023-04-10T14:09:13.829Z,1.05
2023-04-10T14:11:40.770Z,1.05
2023-04-10T14:14:12.446Z,1.20
2023-04-10T14:16:39.488Z,1.25
2023-04-10T14:19:06.582Z,1.15
2023-04-10T14:21:33.450Z,1.15
2023-04-10T14:24:00.234Z,0.90
2023-04-10T14:26:27.325Z,1.10
2023-04-10T14:28:54.373Z,0.90
2023-04-10T14:31:21.561Z,0.88
2023-04-10T14:33:49.334Z,0.98
2023-04-10T14:36:16.253Z,0.98
2023-04-10T14:38:43.230Z,2.58
2023-04-10T14:41:10.176Z,1.20
2023-04-10T14:43:38.045Z,1.23
2023-04-10T14:46:06.706Z,1.45
2023-04-10T14:48:33.974Z,1.08
2023-04-10T14:51:01.382Z,1.20
2023-04-10T14:53:28.282Z,1.00
2023-04-10T14:55:55.161Z,0.93
2023-04-10T14:58:21.983Z,0.98
2023-04-10T15:00:50.659Z,1.00
2023-04-10T15:03:17.962Z,1.02
2023-04-10T15:05:44.927Z,1.15
2023-04-10T15:08:11.721Z,0.98
2023-04-10T15:10:38.602Z,0.80
2023-04-10T15:13:05.982Z,1.13
2023-04-10T15:15:32.781Z,0.95
2023-04-10T15:17:59.700Z,0.93
2023-04-10T15:20:26.541Z,0.77
2023-04-10T15:22:53.386Z,1.40
2023-04-10T15:25:20.416Z,1.08
2023-04-10T15:27:47.212Z,1.10
2023-04-10T15:30:14.183Z,1.20
2023-04-10T15:32:41.069Z,0.90
2023-04-10T15:35:08.515Z,1.00
2023-04-10T15:37:36.698Z,0.90
2023-04-10T15:40:07.473Z,1.00
2023-04-10T15:42:36.289Z,1.00
2023-04-10T15:45:03.848Z,1.30
2023-04-10T15:47:30.815Z,1.02
2023-04-10T15:49:57.816Z,0.90
2023-04-10T15:52:24.701Z,1.25
2023-04-10T15:54:52.667Z,1.17
2023-04-10T15:57:19.503Z,1.50
2023-04-10T15:59:46.321Z,0.90
2023-04-10T16:02:13.369Z,1.00
2023-04-10T16:04:40.674Z,2.45
2023-04-10T16:07:07.571Z,1.00
2023-04-10T16:09:34.364Z,1.23
2023-04-10T16:12:02.045Z,1.30
2023-04-10T16:14:28.981Z,1.20
2023-04-10T16:16:58.134Z,1.00
2023-04-10T16:19:24.982Z,1.08
2023-04-10T16:21:51.918Z,1.33
2023-04-10T16:24:18.773Z,1.13
2023-04-10T16:26:47.627Z,1.50
2023-04-10T16:29:16.040Z,1.52
2023-04-10T16:31:42.923Z,1.30
2023-04-10T16:34:09.753Z,1.38
2023-04-10T16:36:37.515Z,2.03
2023-04-10T16:39:04.429Z,1.60
2023-04-10T16:41:31.289Z,1.48
2023-04-10T16:43:58.131Z,1.20
2023-04-10T16:46:25.147Z,1.27
2023-04-10T16:48:52.649Z,1.50
2023-04-10T16:51:19.630Z,1.45
2023-04-10T16:53:46.538Z,1.45
2023-04-10T16:56:13.517Z,1.63
2023-04-10T16:58:42.045Z,1.58
2023-04-10T17:01:26.610Z,1.92
2023-04-10T17:03:54.911Z,1.48
2023-04-10T17:06:22.177Z,1.73
2023-04-10T17:08:49.006Z,1.48
2023-04-10T17:11:16.186Z,1.58
2023-04-10T17:13:43.407Z,1.10
2023-04-10T17:16:10.684Z,1.80
2023-04-10T17:18:37.598Z,1.63
2023-04-10T17:21:04.983Z,1.88
2023-04-10T17:23:31.898Z,1.42
2023-04-10T17:25:58.806Z,1.60
2023-04-10T17:28:26.051Z,1.55
2023-04-10T17:30:52.941Z,1.60
2023-04-10T17:33:21.650Z,1.42
2023-04-10T17:35:51.425Z,1.48
2023-04-10T17:38:18.929Z,1.50
2023-04-10T17:40:45.949Z,1.35
2023-04-10T17:43:12.826Z,1.40
2023-04-10T17:45:40.148Z,1.42
2023-04-10T17:48:07.876Z,1.50
2023-04-10T17:50:35.737Z,1.73
2023-04-10T17:53:02.784Z,1.58
2023-04-10T17:55:29.733Z,1.40
2023-04-10T17:57:59.640Z,1.70
2023-04-10T18:00:26.655Z,1.50
2023-04-10T18:02:59.829Z,1.42
2023-04-10T18:05:38.113Z,4.10
2023-04-10T18:08:05.827Z,1.98
2023-04-10T18:10:32.638Z,1.63
2023-04-10T18:12:59.609Z,1.40
2023-04-10T18:15:27.890Z,1.67
2023-04-10T18:17:55.234Z,1.58
2023-04-10T18:20:22.459Z,1.92
2023-04-10T18:22:49.310Z,1.80
2023-04-10T18:25:17.097Z,1.92
2023-04-10T18:27:51.624Z,1.88
2023-04-10T18:30:22.553Z,1.92
2023-04-10T18:32:52.045Z,2.08
2023-04-10T18:35:19.116Z,2.20
2023-04-10T18:37:45.960Z,1.80
2023-04-10T18:40:16.204Z,6.35
2023-04-10T18:42:43.867Z,1.63
2023-04-10T18:45:12.970Z,1.92
2023-04-10T18:47:39.907Z,2.53
2023-04-10T18:50:10.162Z,2.10
2023-04-10T18:52:37.458Z,1.90
2023-04-10T18:55:04.629Z,2.35
2023-04-10T18:57:31.473Z,2.58
2023-04-10T18:59:59.463Z,3.80
2023-04-10T19:02:27.926Z,4.57
2023-04-10T19:04:54.866Z,3.30
2023-04-10T19:07:21.733Z,2.47
2023-04-10T19:09:48.613Z,2.42
2023-04-10T19:12:15.657Z,2.30
2023-04-10T19:14:42.487Z,1.95
2023-04-10T19:17:09.351Z,2.05
2023-04-10T19:19:36.167Z,2.50
2023-04-10T19:22:03.111Z,2.13
2023-04-10T19:24:32.947Z,2.53
2023-04-10T19:27:00.745Z,2.90
2023-04-10T19:29:31.038Z,2.67
2023-04-10T19:31:57.941Z,1.92
2023-04-10T19:34:24.947Z,2.50
2023-04-10T19:36:51.757Z,2.45
2023-04-10T19:39:18.592Z,3.40
2023-04-10T19:41:45.591Z,2.50
2023-04-10T19:44:12.720Z,4.97
2023-04-10T19:46:39.852Z,5.70
2023-04-10T19:49:06.985Z,4.50
2023-04-10T19:51:33.865Z,3.42
2023-04-10T19:54:00.732Z,3.60
2023-04-10T19:56:28.623Z,3.65
2023-04-10T19:58:55.549Z,4.20
2023-04-10T20:01:24.254Z,3.20
2023-04-10T20:03:51.414Z,3.22
2023-04-10T20:06:18.467Z,3.28
2023-04-10T20:08:45.347Z,3.50
2023-04-10T20:11:12.218Z,3.17
2023-04-10T20:13:40.875Z,2.97
2023-04-10T20:16:08.757Z,2.90
2023-04-10T20:18:36.582Z,3.08
2023-04-10T20:21:04.621Z,3.25
2023-04-10T20:23:31.516Z,3.05
2023-04-10T20:25:58.432Z,3.38
2023-04-10T20:28:25.378Z,3.15
2023-04-10T20:30:52.190Z,3.80
2023-04-10T20:33:19.131Z,5.30
2023-04-10T20:35:46.049Z,5.82
2023-04-10T20:38:12.961Z,4.55
2023-04-10T20:40:39.833Z,4.07
2023-04-10T20:43:12.089Z,3.42
2023-04-10T20:45:40.426Z,3.13
2023-04-10T20:48:09.155Z,3.42
2023-04-10T20:50:37.086Z,3.58
2023-04-10T20:53:04.083Z,2.60
2023-04-10T20:55:31.154Z,3.80
2023-04-10T20:57:58.703Z,3.10
2023-04-10T21:00:25.814Z,3.42
2023-04-10T21:02:52.944Z,2.90
2023-04-10T21:05:19.911Z,3.30
2023-04-10T21:07:46.711Z,2.90
2023-04-10T21:10:13.595Z,3.58
2023-04-10T21:12:40.570Z,3.50
2023-04-10T21:15:08.531Z,3.25
2023-04-10T21:17:35.566Z,3.58
2023-04-10T21:20:02.621Z,3.42
2023-04-10T21:22:29.666Z,3.55
2023-04-10T21:24:56.799Z,2.85
2023-04-10T21:27:24.076Z,2.70
2023-04-10T21:29:50.937Z,2.85
2023-04-10T21:32:17.752Z,3.40
2023-04-10T21:34:44.670Z,3.72
2023-04-10T21:37:11.522Z,3.33
2023-04-10T21:39:43.296Z,2.92
2023-04-10T21:42:10.139Z,3.15
2023-04-10T21:44:36.966Z,2.92
2023-04-10T21:47:04.428Z,3.05
2023-04-10T21:49:31.263Z,2.65
2023-04-10T21:51:59.171Z,3.75
2023-04-10T21:54:26.110Z,2.95
2023-04-10T21:56:53.091Z,2.70
2023-04-10T21:59:19.923Z,2.72
2023-04-10T22:01:47.003Z,3.08
2023-04-10T22:04:14.239Z,3.17
2023-04-10T22:06:41.153Z,3.42
2023-04-10T22:09:07.962Z,3.20
2023-04-10T22:11:35.994Z,4.18
2023-04-10T22:14:14.980Z,3.63
2023-04-10T22:16:43.225Z,3.15
2023-04-10T22:19:10.186Z,3.35
2023-04-10T22:21:37.233Z,2.97
2023-04-10T22:24:04.260Z,4.70
2023-04-10T22:26:32.797Z,2.83
2023-04-10T22:28:59.670Z,2.95
2023-04-10T22:31:26.665Z,3.25
2023-04-10T22:33:53.548Z,3.00
2023-04-10T22:36:21.897Z,3.33
2023-04-10T22:38:48.737Z,3.40
2023-04-10T22:41:15.631Z,3.13
2023-04-10T22:43:42.441Z,3.13
2023-04-10T22:46:09.669Z,2.90
2023-04-10T22:48:36.595Z,8.02
2023-04-10T22:51:03.604Z,2.83
2023-04-10T22:53:30.525Z,2.25
2023-04-10T22:55:57.424Z,2.72
2023-04-10T22:58:24.290Z,2.58
2023-04-10T23:00:51.089Z,2.75
2023-04-10T23:03:17.966Z,2.50
2023-04-10T23:05:44.850Z,3.08
2023-04-10T23:08:11.695Z,2.90
2023-04-10T23:10:38.541Z,3.00
2023-04-10T23:13:05.374Z,2.50
2023-04-10T23:15:32.318Z,2.75
2023-04-10T23:17:59.236Z,1.75
2023-04-10T23:20:26.155Z,2.00
2023-04-10T23:22:56.280Z,2.38
2023-04-10T23:25:23.311Z,2.05
2023-04-10T23:27:50.366Z,1.88
2023-04-10T23:30:17.158Z,2.58
2023-04-10T23:32:43.952Z,1.83
2023-04-10T23:35:10.779Z,3.20
2023-04-10T23:37:37.761Z,1.95
2023-04-10T23:40:05.156Z,1.85
2023-04-10T23:42:31.984Z,1.85
2023-04-10T23:44:58.788Z,1.90
2023-04-10T23:47:25.732Z,1.60
2023-04-10T23:49:52.550Z,2.10
2023-04-10T23:52:19.489Z,2.53
2023-04-10T23:54:46.299Z,1.80
2023-04-10T23:57:13.160Z,2.80
2023-04-10T23:59:39.971Z,1.55
